createdAt,value
2023-06-25T00:00:23.548Z,39.97
2023-06-25T00:02:55.357Z,40.96
2023-06-25T00:05:27.675Z,42.38
2023-06-25T00:08:04.333Z,43.67
2023-06-25T00:10:37.557Z,44.87
2023-06-25T00:13:12.225Z,45.43
2023-06-25T00:15:41.738Z,44.06
2023-06-25T00:18:13.694Z,41.88
2023-06-25T00:20:43.059Z,40.04
2023-06-25T00:23:12.340Z,38.90
2023-06-25T00:25:44.575Z,38.35
2023-06-25T00:28:19.011Z,38.66
2023-06-25T00:30:51.278Z,39.26
2023-06-25T00:33:24.022Z,39.82
2023-06-25T00:35:53.391Z,40.10
2023-06-25T00:38:32.322Z,40.14
2023-06-25T00:41:01.610Z,40.47
2023-06-25T00:43:35.552Z,41.22
2023-06-25T00:46:05.225Z,41.86
2023-06-25T00:48:34.831Z,42.88
2023-06-25T00:51:04.247Z,42.87
2023-06-25T00:53:43.650Z,42.90
2023-06-25T00:56:16.463Z,41.18
2023-06-25T00:59:31.783Z,39.37
2023-06-25T01:03:14.361Z,38.28
2023-06-25T01:06:13.053Z,36.29
2023-06-25T01:08:56.224Z,34.89
2023-06-25T01:11:25.840Z,33.98
2023-06-25T01:13:57.530Z,33.10
2023-06-25T01:16:27.771Z,32.23
2023-06-25T01:19:05.071Z,31.36
2023-06-25T01:21:37.513Z,30.40
2023-06-25T01:24:07.361Z,29.66
2023-06-25T01:26:36.742Z,29.11
2023-06-25T01:29:06.340Z,28.60
2023-06-25T01:31:35.578Z,28.15
2023-06-25T01:34:07.253Z,27.72
2023-06-25T01:36:42.646Z,27.33
2023-06-25T01:39:12.117Z,26.94
2023-06-25T01:41:41.541Z,26.54
2023-06-25T01:44:21.577Z,25.97
2023-06-25T01:46:51.262Z,25.55
2023-06-25T01:49:30.949Z,25.25
2023-06-25T01:52:08.526Z,24.93
2023-06-25T01:54:53.278Z,24.43
2023-06-25T01:57:25.149Z,23.92
2023-06-25T01:59:57.372Z,23.64
2023-06-25T02:02:26.967Z,23.24
2023-06-25T02:04:59.022Z,22.55
2023-06-25T02:07:28.479Z,22.15
2023-06-25T02:10:00.942Z,21.82
2023-06-25T02:12:32.205Z,21.43
2023-06-25T02:15:01.606Z,21.16
2023-06-25T02:17:31.033Z,20.98
2023-06-25T02:20:00.761Z,20.91
2023-06-25T02:22:30.327Z,20.83
2023-06-25T02:25:03.049Z,20.72
2023-06-25T02:27:35.552Z,20.63
2023-06-25T02:30:12.491Z,20.55
2023-06-25T02:32:41.974Z,20.45
2023-06-25T02:35:14.042Z,20.38
2023-06-25T02:37:49.654Z,20.27
2023-06-25T02:40:18.870Z,20.10
2023-06-25T02:42:48.274Z,19.92
2023-06-25T02:45:19.794Z,19.85
2023-06-25T02:47:52.259Z,19.69
2023-06-25T02:50:21.668Z,19.55
2023-06-25T02:52:51.412Z,19.40
2023-06-25T02:55:23.969Z,19.30
2023-06-25T02:57:58.243Z,19.26
2023-06-25T03:00:27.537Z,19.23
2023-06-25T03:02:57.268Z,19.14
2023-06-25T03:05:26.987Z,19.05
2023-06-25T03:08:00.668Z,18.92
2023-06-25T03:10:37.933Z,18.86
2023-06-25T03:13:11.410Z,18.81
2023-06-25T03:15:41.039Z,18.75
2023-06-25T03:18:18.497Z,18.71
2023-06-25T03:20:50.158Z,18.63
2023-06-25T03:23:21.995Z,18.57
2023-06-25T03:26:05.503Z,18.47
2023-06-25T03:31:33.885Z,18.36
2023-06-25T03:34:03.963Z,18.29
2023-06-25T03:36:38.716Z,18.24
2023-06-25T03:39:28.065Z,18.21
2023-06-25T03:42:04.982Z,18.16
2023-06-25T03:44:37.434Z,18.13
2023-06-25T03:47:17.975Z,18.07
2023-06-25T03:49:53.757Z,17.98
2023-06-25T03:52:37.239Z,17.90
2023-06-25T03:55:53.320Z,17.82
2023-06-25T03:58:37.815Z,17.75
2023-06-25T04:01:15.568Z,17.66
2023-06-25T04:03:54.573Z,17.58
2023-06-25T04:06:24.768Z,17.48
2023-06-25T04:08:54.325Z,17.41
2023-06-25T04:11:26.863Z,17.34
2023-06-25T04:13:56.010Z,17.26
2023-06-25T04:16:49.753Z,17.20
2023-06-25T04:19:22.066Z,17.15
2023-06-25T04:21:53.528Z,17.10
2023-06-25T04:24:22.800Z,17.10
2023-06-25T04:27:01.390Z,17.10
2023-06-25T04:29:30.962Z,17.10
2023-06-25T04:32:00.402Z,17.11
2023-06-25T04:34:29.997Z,17.10
2023-06-25T04:36:59.674Z,17.05
2023-06-25T04:39:29.162Z,17.01
2023-06-25T04:42:05.873Z,16.94
2023-06-25T04:44:35.354Z,16.89
2023-06-25T04:47:05.135Z,16.80
2023-06-25T04:49:35.128Z,16.72
2023-06-25T04:52:04.698Z,16.62
2023-06-25T04:54:34.274Z,16.55
2023-06-25T04:57:03.651Z,16.48
2023-06-25T04:59:33.163Z,16.41
2023-06-25T05:02:04.977Z,16.34
2023-06-25T05:04:39.859Z,16.29
2023-06-25T05:07:18.069Z,16.23
2023-06-25T05:09:49.631Z,16.18
2023-06-25T05:12:22.055Z,16.11
2023-06-25T05:14:51.481Z,16.04
2023-06-25T05:17:21.026Z,15.98
2023-06-25T05:19:53.680Z,15.91
2023-06-25T05:22:25.207Z,15.80
2023-06-25T05:25:09.277Z,15.72
2023-06-25T05:27:44.753Z,15.63
2023-06-25T05:30:18.423Z,15.60
2023-06-25T05:32:50.117Z,15.50
2023-06-25T05:35:19.600Z,15.43
2023-06-25T05:37:51.976Z,15.38
2023-06-25T05:40:24.799Z,15.34
2023-06-25T05:42:56.753Z,15.29
2023-06-25T05:45:28.381Z,15.26
2023-06-25T05:47:57.985Z,15.22
2023-06-25T05:50:33.180Z,15.16
2023-06-25T05:53:02.723Z,15.08
2023-06-25T05:55:33.941Z,15.05
2023-06-25T05:58:08.942Z,15.03
2023-06-25T06:00:49.096Z,14.99
2023-06-25T06:03:21.994Z,14.95
2023-06-25T06:05:51.778Z,14.95
2023-06-25T06:08:21.467Z,14.94
2023-06-25T06:10:53.742Z,14.92
2023-06-25T06:13:25.971Z,14.89
2023-06-25T06:15:55.590Z,14.84
2023-06-25T06:18:25.384Z,14.79
2023-06-25T06:20:54.847Z,14.76
2023-06-25T06:23:24.156Z,14.76
2023-06-25T06:25:56.214Z,14.73
2023-06-25T06:28:28.387Z,14.71
2023-06-25T06:30:57.902Z,14.68
2023-06-25T06:33:27.298Z,14.64
2023-06-25T06:36:02.281Z,14.59
2023-06-25T06:38:31.687Z,14.55
2023-06-25T06:41:06.866Z,14.50
2023-06-25T06:43:36.340Z,14.48
2023-06-25T06:46:10.335Z,14.47
2023-06-25T06:48:47.230Z,14.46
2023-06-25T06:51:16.643Z,14.42
2023-06-25T06:53:55.142Z,14.37
2023-06-25T06:56:24.710Z,14.31
2023-06-25T06:59:03.569Z,14.28
2023-06-25T07:01:33.090Z,14.26
2023-06-25T07:04:02.564Z,14.24
2023-06-25T07:06:32.081Z,14.22
2023-06-25T07:09:08.922Z,14.23
2023-06-25T07:11:38.354Z,14.20
2023-06-25T07:14:15.349Z,14.18
2023-06-25T07:16:48.366Z,14.15
2023-06-25T07:19:17.835Z,14.12
2023-06-25T07:21:50.179Z,14.09
2023-06-25T07:24:22.321Z,14.02
2023-06-25T07:26:54.443Z,13.98
2023-06-25T07:29:28.689Z,13.92
2023-06-25T07:32:00.913Z,13.87
2023-06-25T07:34:30.322Z,13.84
2023-06-25T07:37:02.337Z,13.81
2023-06-25T07:39:33.366Z,13.77
2023-06-25T07:42:03.738Z,13.71
2023-06-25T07:44:50.421Z,13.65
2023-06-25T07:47:33.793Z,13.60
2023-06-25T07:50:06.606Z,13.57
2023-06-25T07:52:49.856Z,13.52
2023-06-25T07:55:19.526Z,13.48
2023-06-25T07:57:54.026Z,13.44
2023-06-25T08:00:23.465Z,13.39
2023-06-25T08:02:52.890Z,13.35
2023-06-25T08:05:24.917Z,13.31
2023-06-25T08:08:01.493Z,13.25
2023-06-25T08:10:31.002Z,13.17
2023-06-25T08:13:00.514Z,13.09
2023-06-25T08:15:32.332Z,13.01
2023-06-25T08:18:04.341Z,12.93
2023-06-25T08:20:38.801Z,12.84
2023-06-25T08:23:11.234Z,12.78
2023-06-25T08:25:52.132Z,12.72
2023-06-25T08:28:21.593Z,12.66
2023-06-25T08:30:51.108Z,12.59
2023-06-25T08:33:23.290Z,12.55
2023-06-25T08:35:53.087Z,12.51
2023-06-25T08:38:24.097Z,12.48
2023-06-25T08:40:58.941Z,12.45
2023-06-25T08:43:34.275Z,12.40
2023-06-25T08:46:05.206Z,12.38
2023-06-25T08:48:38.515Z,12.36
2023-06-25T08:51:24.327Z,12.32
2023-06-25T08:54:00.442Z,12.28
2023-06-25T08:56:33.840Z,12.23
2023-06-25T08:59:05.503Z,12.19
2023-06-25T09:01:34.939Z,12.14
2023-06-25T09:04:04.175Z,12.10
2023-06-25T09:06:58.398Z,12.06
2023-06-25T09:09:34.259Z,12.02
2023-06-25T09:12:04.114Z,12.01
2023-06-25T09:14:35.462Z,11.99
2023-06-25T09:17:06.327Z,11.95
2023-06-25T09:19:35.679Z,11.91
2023-06-25T09:22:05.023Z,11.88
2023-06-25T09:24:34.557Z,11.87
2023-06-25T09:27:06.505Z,11.82
2023-06-25T09:29:40.121Z,11.81
2023-06-25T09:32:19.458Z,11.79
2023-06-25T09:34:55.046Z,11.75
2023-06-25T09:37:27.670Z,11.71
2023-06-25T09:40:00.533Z,11.70
2023-06-25T09:42:30.668Z,11.67
2023-06-25T09:45:06.237Z,11.65
2023-06-25T09:47:35.863Z,11.58
2023-06-25T09:50:14.557Z,11.54
2023-06-25T09:52:57.488Z,11.51
2023-06-25T09:55:31.556Z,11.46
2023-06-25T09:58:05.613Z,11.45
2023-06-25T10:00:36.803Z,11.42
2023-06-25T10:03:07.293Z,11.40
2023-06-25T10:05:41.186Z,11.36
2023-06-25T10:08:11.626Z,11.32
2023-06-25T10:10:44.243Z,11.29
2023-06-25T10:13:16.246Z,11.25
2023-06-25T10:15:50.354Z,11.22
2023-06-25T10:18:26.676Z,11.19
2023-06-25T10:21:01.344Z,11.16
2023-06-25T10:23:32.690Z,11.17
2023-06-25T10:26:03.790Z,11.16
2023-06-25T10:28:44.703Z,11.15
2023-06-25T10:31:21.203Z,11.15
2023-06-25T10:33:53.077Z,11.12
2023-06-25T10:36:28.099Z,11.10
2023-06-25T10:39:00.659Z,11.08
2023-06-25T10:41:38.052Z,11.05
2023-06-25T10:44:07.454Z,11.03
2023-06-25T10:46:37.432Z,11.01
2023-06-25T10:49:18.587Z,10.97
2023-06-25T10:51:48.357Z,10.91
2023-06-25T10:54:18.406Z,10.87
2023-06-25T10:56:49.479Z,10.84
2023-06-25T10:59:27.789Z,10.78
2023-06-25T11:01:57.183Z,10.72
2023-06-25T11:04:28.054Z,10.65
2023-06-25T11:06:59.497Z,10.60
2023-06-25T11:09:41.370Z,10.57
2023-06-25T11:12:11.241Z,10.50
2023-06-25T11:14:40.626Z,10.46
2023-06-25T11:17:12.952Z,10.43
2023-06-25T11:19:46.687Z,10.40
2023-06-25T11:22:19.486Z,10.38
2023-06-25T11:24:58.244Z,10.35
2023-06-25T11:27:31.291Z,10.32
2023-06-25T11:30:00.844Z,10.31
2023-06-25T11:32:32.741Z,10.29
2023-06-25T11:35:02.882Z,10.27
2023-06-25T11:37:34.139Z,10.25
2023-06-25T11:40:06.291Z,10.23
2023-06-25T11:42:43.631Z,10.19
2023-06-25T11:45:13.737Z,10.14
2023-06-25T11:47:56.230Z,10.08
2023-06-25T11:50:27.454Z,10.05
2023-06-25T11:52:58.781Z,10.01
2023-06-25T11:55:31.414Z,9.98
2023-06-25T11:58:01.101Z,9.94
2023-06-25T12:00:33.280Z,9.88
2023-06-25T12:03:02.852Z,9.81
2023-06-25T12:05:35.525Z,9.77
2023-06-25T12:08:05.705Z,9.74
2023-06-25T12:10:37.779Z,9.72
2023-06-25T12:13:07.286Z,9.70
2023-06-25T12:15:39.645Z,9.68
2023-06-25T12:18:09.380Z,9.68
2023-06-25T12:20:38.759Z,9.67
2023-06-25T12:23:08.475Z,9.62
2023-06-25T12:25:38.796Z,9.61
2023-06-25T12:28:14.865Z,9.60
2023-06-25T12:30:44.347Z,9.61
2023-06-25T12:33:13.661Z,9.63
2023-06-25T12:35:42.949Z,9.67
2023-06-25T12:38:14.784Z,9.69
2023-06-25T12:40:48.551Z,9.66
2023-06-25T12:43:18.456Z,9.62
2023-06-25T12:45:51.045Z,9.63
2023-06-25T12:48:20.964Z,9.66
2023-06-25T12:50:53.300Z,9.69
2023-06-25T12:53:22.562Z,9.71
2023-06-25T12:55:52.042Z,9.71
2023-06-25T12:58:25.360Z,9.70
2023-06-25T13:01:06.423Z,9.68
2023-06-25T13:03:39.949Z,9.68
2023-06-25T13:06:14.583Z,9.67
2023-06-25T13:08:50.119Z,9.69
2023-06-25T13:11:19.829Z,9.70
2023-06-25T13:13:49.221Z,9.73
2023-06-25T13:16:18.661Z,9.75
2023-06-25T13:18:48.030Z,9.81
2023-06-25T13:21:18.548Z,9.87
2023-06-25T13:23:47.723Z,9.91
2023-06-25T13:26:17.469Z,9.99
2023-06-25T13:28:47.019Z,10.06
2023-06-25T13:31:16.525Z,10.14
2023-06-25T13:33:46.212Z,10.21
2023-06-25T13:36:17.910Z,10.28
2023-06-25T13:38:50.153Z,10.34
2023-06-25T13:41:19.464Z,10.37
2023-06-25T13:43:49.884Z,10.43
2023-06-25T13:46:20.369Z,10.49
2023-06-25T13:48:49.752Z,10.55
2023-06-25T13:51:19.005Z,10.59
2023-06-25T13:53:52.926Z,10.60
2023-06-25T13:56:35.451Z,10.65
2023-06-25T13:59:38.618Z,10.73
2023-06-25T14:02:44.593Z,10.80
2023-06-25T14:05:56.885Z,10.82
2023-06-25T14:15:26.992Z,10.95
2023-06-25T14:17:59.492Z,10.97
2023-06-25T14:20:29.196Z,10.97
2023-06-25T14:23:03.250Z,11.00
2023-06-25T14:25:36.817Z,11.00
2023-06-25T14:28:06.973Z,11.01
2023-06-25T14:38:09.739Z,11.09
2023-06-25T14:38:31.157Z,11.02
2023-06-25T14:41:10.173Z,11.13
2023-06-25T14:44:01.566Z,11.13
2023-06-25T14:46:38.570Z,11.15
2023-06-25T14:49:07.801Z,11.16
2023-06-25T14:51:37.374Z,11.18
2023-06-25T14:54:06.822Z,11.23
2023-06-25T14:56:36.097Z,11.26
2023-06-25T14:59:05.541Z,11.29
2023-06-25T15:01:40.725Z,11.36
2023-06-25T15:04:12.424Z,11.43
2023-06-25T15:06:45.861Z,11.51
2023-06-25T15:09:18.649Z,11.63
2023-06-25T15:11:48.116Z,11.74
2023-06-25T15:14:29.002Z,11.85
2023-06-25T15:16:58.402Z,11.94
2023-06-25T15:19:28.425Z,12.01
2023-06-25T15:21:57.799Z,12.09
2023-06-25T15:24:27.103Z,12.17
2023-06-25T15:26:56.542Z,12.20
2023-06-25T15:29:26.667Z,12.27
2023-06-25T15:31:56.209Z,12.32
2023-06-25T15:34:29.754Z,12.39
2023-06-25T15:36:59.329Z,12.44
2023-06-25T15:39:28.807Z,12.50
2023-06-25T15:41:58.749Z,12.55
2023-06-25T15:44:28.189Z,12.59
2023-06-25T15:46:57.856Z,12.61
2023-06-25T15:49:27.392Z,12.61
2023-06-25T15:51:56.814Z,12.58
2023-06-25T15:54:26.808Z,12.57
2023-06-25T15:56:59.208Z,12.56
2023-06-25T15:59:36.392Z,12.55
2023-06-25T16:02:06.168Z,12.55
2023-06-25T16:04:44.241Z,12.53
2023-06-25T16:07:13.805Z,12.52
2023-06-25T16:09:43.176Z,12.50
2023-06-25T16:12:12.767Z,12.49
2023-06-25T16:14:42.197Z,12.47
2023-06-25T16:17:15.774Z,12.51
2023-06-25T16:22:17.434Z,12.63
2023-06-25T16:24:48.830Z,12.65
2023-06-25T16:27:18.167Z,12.66
2023-06-25T16:29:50.649Z,12.62
2023-06-25T16:32:20.072Z,12.60
2023-06-25T16:34:49.612Z,12.64
2023-06-25T16:37:19.905Z,12.68
2023-06-25T16:39:49.203Z,12.72
2023-06-25T16:42:18.561Z,12.76
2023-06-25T16:44:48.938Z,12.81
2023-06-25T16:47:18.386Z,12.89
2023-06-25T16:49:50.371Z,12.96
2023-06-25T16:52:22.260Z,13.00
2023-06-25T16:54:54.596Z,13.06
2023-06-25T16:57:26.286Z,13.10
2023-06-25T17:00:00.878Z,13.13
2023-06-25T17:02:33.116Z,13.20
2023-06-25T17:05:02.650Z,13.17
2023-06-25T17:07:32.109Z,13.14
2023-06-25T17:10:01.445Z,13.12
2023-06-25T17:12:33.849Z,13.12
2023-06-25T17:15:15.479Z,13.09
2023-06-25T17:17:53.628Z,13.00
2023-06-25T17:20:42.031Z,12.97
2023-06-25T17:23:23.137Z,12.99
2023-06-25T17:28:48.185Z,13.12
2023-06-25T17:31:35.791Z,13.17
2023-06-25T17:34:08.395Z,13.21
2023-06-25T17:36:40.268Z,13.23
2023-06-25T17:39:10.283Z,13.25
2023-06-25T17:41:39.850Z,13.28
2023-06-25T17:44:11.678Z,13.31
2023-06-25T17:46:45.797Z,13.34
2023-06-25T17:49:17.599Z,13.40
2023-06-25T17:51:47.128Z,13.38
2023-06-25T17:54:16.529Z,13.42
2023-06-25T17:56:46.672Z,13.44
2023-06-25T17:59:21.016Z,13.46
2023-06-25T18:01:57.445Z,13.50
2023-06-25T18:04:29.092Z,13.58
2023-06-25T18:07:00.334Z,13.69
2023-06-25T18:09:30.022Z,13.71
2023-06-25T18:12:02.276Z,13.75
2023-06-25T18:14:31.787Z,13.79
2023-06-25T18:17:01.862Z,13.86
2023-06-25T18:19:32.649Z,13.91
2023-06-25T18:22:02.632Z,13.99
2023-06-25T18:24:31.988Z,14.10
2023-06-25T18:27:01.404Z,14.19
2023-06-25T18:29:30.813Z,14.28
2023-06-25T18:32:02.367Z,14.37
2023-06-25T18:34:39.280Z,14.46
2023-06-25T18:37:08.638Z,14.59
2023-06-25T18:39:44.347Z,14.82
2023-06-25T18:42:13.901Z,15.01
2023-06-25T18:44:43.377Z,15.19
2023-06-25T18:47:18.458Z,15.44
2023-06-25T18:49:47.816Z,15.62
2023-06-25T18:52:18.199Z,15.77
2023-06-25T18:54:50.767Z,15.93
2023-06-25T18:57:20.291Z,16.03
2023-06-25T18:59:49.837Z,16.12
2023-06-25T19:02:19.357Z,16.19
2023-06-25T19:04:48.878Z,16.18
2023-06-25T19:07:18.771Z,16.08
2023-06-25T19:09:51.253Z,16.04
2023-06-25T19:12:20.590Z,16.03
2023-06-25T19:14:50.038Z,15.98
2023-06-25T19:17:22.544Z,16.03
2023-06-25T19:19:54.937Z,16.11
2023-06-25T19:22:24.842Z,16.19
2023-06-25T19:24:54.230Z,16.31
2023-06-25T19:27:57.046Z,16.39
2023-06-25T19:30:24.148Z,16.56
2023-06-25T19:32:56.399Z,16.79
2023-06-25T19:35:26.414Z,17.05
2023-06-25T19:37:57.063Z,17.25
2023-06-25T19:40:26.613Z,17.38
2023-06-25T19:42:58.332Z,17.47
2023-06-25T19:45:33.207Z,17.64
2023-06-25T19:48:02.883Z,17.87
2023-06-25T19:50:32.624Z,18.06
2023-06-25T19:53:01.970Z,18.22
2023-06-25T19:55:31.721Z,18.38
2023-06-25T19:58:01.270Z,18.60
2023-06-25T20:00:30.686Z,18.79
2023-06-25T20:03:00.219Z,18.93
2023-06-25T20:05:29.630Z,19.10
2023-06-25T20:08:01.921Z,19.24
2023-06-25T20:10:32.872Z,19.48
2023-06-25T20:13:02.911Z,19.59
2023-06-25T20:15:32.602Z,19.67
2023-06-25T20:18:02.039Z,19.87
2023-06-25T20:20:33.909Z,19.97
2023-06-25T20:23:03.581Z,19.97
2023-06-25T20:25:33.082Z,20.00
2023-06-25T20:28:02.704Z,20.22
2023-06-25T20:30:32.200Z,20.51
2023-06-25T20:33:04.245Z,20.63
2023-06-25T20:35:37.815Z,20.68
2023-06-25T20:38:17.671Z,20.80
2023-06-25T20:40:47.786Z,21.04
2023-06-25T20:43:18.392Z,21.32
2023-06-25T20:45:50.947Z,21.50
2023-06-25T20:48:20.575Z,21.68
2023-06-25T20:50:50.657Z,21.92
2023-06-25T20:53:24.147Z,22.24
2023-06-25T20:55:53.801Z,22.63
2023-06-25T20:58:23.391Z,22.96
2023-06-25T21:01:02.202Z,23.05
2023-06-25T21:03:31.700Z,22.94
2023-06-25T21:06:01.124Z,22.82
2023-06-25T21:08:30.518Z,22.64
2023-06-25T21:11:02.825Z,22.45
2023-06-25T21:13:32.390Z,22.23
2023-06-25T21:16:01.739Z,21.97
2023-06-25T21:18:33.739Z,21.70
2023-06-25T21:21:03.401Z,21.34
2023-06-25T21:23:32.836Z,21.02
2023-06-25T21:26:02.091Z,20.80
2023-06-25T21:28:31.375Z,20.65
2023-06-25T21:31:03.283Z,20.51
2023-06-25T21:33:32.541Z,20.35
2023-06-25T21:36:01.807Z,20.25
2023-06-25T21:38:34.218Z,20.17
2023-06-25T21:41:03.510Z,20.09
2023-06-25T21:43:38.235Z,19.94
2023-06-25T21:46:07.809Z,19.78
2023-06-25T21:48:37.350Z,19.60
2023-06-25T21:51:06.822Z,19.36
2023-06-25T21:53:36.751Z,19.13
2023-06-25T21:56:06.497Z,18.90
2023-06-25T21:58:36.084Z,18.62
2023-06-25T22:01:05.623Z,18.34
2023-06-25T22:03:35.105Z,18.06
2023-06-25T22:06:04.676Z,17.73
2023-06-25T22:08:34.290Z,17.42
2023-06-25T22:11:03.995Z,17.16
2023-06-25T22:13:36.650Z,16.92
2023-06-25T22:16:08.715Z,16.72
2023-06-25T22:18:41.149Z,16.55
2023-06-25T22:21:10.697Z,16.44
2023-06-25T22:23:40.634Z,16.31
2023-06-25T22:26:10.314Z,16.18
2023-06-25T22:28:42.481Z,16.10
2023-06-25T22:31:11.769Z,16.04
2023-06-25T22:33:41.258Z,16.02
2023-06-25T22:36:10.738Z,15.99
2023-06-25T22:38:40.437Z,15.95
2023-06-25T22:41:12.255Z,15.92
2023-06-25T22:43:41.698Z,15.92
2023-06-25T22:46:11.372Z,15.94
2023-06-25T22:48:44.411Z,15.94
2023-06-25T22:51:15.065Z,15.97
2023-06-25T22:53:48.328Z,16.05
2023-06-25T22:56:22.586Z,16.20
2023-06-25T22:58:53.593Z,16.48
2023-06-25T23:01:28.765Z,16.85
2023-06-25T23:03:58.243Z,17.46
2023-06-25T23:06:27.779Z,18.51
2023-06-25T23:08:57.164Z,19.61
2023-06-25T23:11:26.717Z,20.75
2023-06-25T23:13:59.113Z,21.84
2023-06-25T23:16:31.292Z,22.72
2023-06-25T23:19:02.812Z,23.06
2023-06-25T23:21:33.618Z,23.35
2023-06-25T23:24:07.625Z,23.68
2023-06-25T23:26:39.912Z,23.55
2023-06-25T23:29:15.000Z,23.44
2023-06-25T23:31:45.689Z,23.24
2023-06-25T23:34:17.953Z,23.23
2023-06-25T23:36:47.352Z,23.12
2023-06-25T23:39:16.912Z,22.96
2023-06-25T23:41:46.383Z,22.72
2023-06-25T23:44:17.378Z,22.58
2023-06-25T23:46:46.652Z,22.43
2023-06-25T23:49:18.362Z,22.29
2023-06-25T23:51:47.807Z,22.11
2023-06-25T23:54:19.629Z,22.15
2023-06-25T23:56:51.174Z,22.35
2023-06-25T23:59:22.891Z,22.43
